createdAt,value
2023-01-12T00:50:19.450Z,13.93
2023-01-12T00:52:46.093Z,11.63
2023-01-12T00:55:12.494Z,9.82
2023-01-12T00:57:38.917Z,12.80
2023-01-12T01:00:06.106Z,12.13
2023-01-12T01:02:32.842Z,18.35
2023-01-12T01:04:59.817Z,14.25
2023-01-12T01:07:26.380Z,9.98
2023-01-12T01:09:53.226Z,11.02
2023-01-12T01:12:19.931Z,12.25
2023-01-12T01:14:47.406Z,10.13
2023-01-12T01:17:13.815Z,11.43
2023-01-12T01:19:40.236Z,13.35
2023-01-12T01:22:06.728Z,10.90
2023-01-12T01:24:34.351Z,18.40
2023-01-12T01:27:00.849Z,10.75
2023-01-12T01:29:27.258Z,13.35
2023-01-12T01:31:57.169Z,10.88
2023-01-12T01:34:24.013Z,9.77
2023-01-12T01:36:50.745Z,9.85
2023-01-12T01:39:17.926Z,14.10
2023-01-12T01:41:45.274Z,14.77
2023-01-12T01:44:30.130Z,16.48
2023-01-12T01:46:57.950Z,13.50
2023-01-12T01:49:28.928Z,17.83
2023-01-12T01:52:00.812Z,13.50
2023-01-12T01:54:29.441Z,17.27
2023-01-12T01:56:57.195Z,12.63
2023-01-12T01:59:27.059Z,16.13
2023-01-12T02:01:55.222Z,14.27
2023-01-12T02:04:22.358Z,14.50
2023-01-12T02:06:49.007Z,14.38
2023-01-12T02:09:19.279Z,14.23
2023-01-12T02:12:05.700Z,12.77
2023-01-12T02:14:52.321Z,16.38
2023-01-12T02:17:22.556Z,9.35
2023-01-12T02:20:18.592Z,13.05
2023-01-12T02:23:04.642Z,13.60
2023-01-12T02:25:55.555Z,12.60
2023-01-12T02:28:52.193Z,8.77
2023-01-12T02:31:24.694Z,15.32
2023-01-12T02:34:19.915Z,13.35
2023-01-12T02:37:08.778Z,15.77
2023-01-12T02:39:44.539Z,13.73
2023-01-12T02:42:32.678Z,11.90
2023-01-12T02:45:08.369Z,13.85
2023-01-12T02:47:43.957Z,13.00
2023-01-12T02:50:14.997Z,12.95
2023-01-12T02:52:43.368Z,14.23
2023-01-12T02:55:10.407Z,11.10
2023-01-12T02:57:37.548Z,11.68
2023-01-12T03:00:05.485Z,13.73
2023-01-12T03:02:32.324Z,20.42
2023-01-12T03:04:58.852Z,13.10
2023-01-12T03:07:31.421Z,12.95
2023-01-12T03:10:11.194Z,14.05
2023-01-12T03:12:39.667Z,10.82
2023-01-12T03:15:08.653Z,9.83
2023-01-12T03:17:43.573Z,11.82
2023-01-12T03:20:22.977Z,16.63
2023-01-12T03:22:51.773Z,12.07
2023-01-12T03:25:18.533Z,14.23
2023-01-12T03:27:48.985Z,12.95
2023-01-12T03:30:21.579Z,14.80
2023-01-12T03:32:48.953Z,12.10
2023-01-12T03:35:15.786Z,14.60
2023-01-12T03:37:56.119Z,13.63
2023-01-12T03:40:23.903Z,13.27
2023-01-12T03:42:57.369Z,12.02
2023-01-12T03:45:31.898Z,14.45
2023-01-12T03:48:03.973Z,16.17
2023-01-12T03:50:34.872Z,17.92
2023-01-12T03:53:02.746Z,18.48
2023-01-12T03:55:30.499Z,16.58
2023-01-12T03:57:57.140Z,17.67
2023-01-12T04:00:24.976Z,15.68
2023-01-12T04:03:02.562Z,17.30
2023-01-12T04:05:29.143Z,19.10
2023-01-12T04:07:55.810Z,13.68
2023-01-12T04:10:22.206Z,14.85
2023-01-12T04:12:48.621Z,13.77
2023-01-12T04:15:15.124Z,13.38
2023-01-12T04:17:41.596Z,15.73
2023-01-12T04:20:09.549Z,14.70
2023-01-12T04:22:45.066Z,14.82
2023-01-12T04:25:15.583Z,16.15
2023-01-12T04:27:46.439Z,12.82
2023-01-12T04:30:13.964Z,10.63
2023-01-12T04:32:42.041Z,13.60
2023-01-12T04:35:09.075Z,13.02
2023-01-12T04:37:35.688Z,14.25
2023-01-12T04:40:02.154Z,17.95
2023-01-12T04:42:47.320Z,12.05
2023-01-12T04:45:13.873Z,13.07
2023-01-12T04:47:40.367Z,13.23
2023-01-12T04:50:07.808Z,12.50
2023-01-12T04:52:34.726Z,13.15
2023-01-12T04:55:01.246Z,11.65
2023-01-12T04:57:27.706Z,13.43
2023-01-12T04:59:54.190Z,12.40
2023-01-12T05:02:20.700Z,13.32
2023-01-12T05:04:47.879Z,11.23
2023-01-12T05:07:14.743Z,16.30
2023-01-12T05:09:59.945Z,10.30
2023-01-12T05:12:26.685Z,11.95
2023-01-12T05:14:53.199Z,15.40
2023-01-12T05:17:19.788Z,18.98
2023-01-12T05:19:46.221Z,15.80
2023-01-12T05:22:12.668Z,15.75
2023-01-12T05:24:39.122Z,15.23
2023-01-12T05:27:05.525Z,15.63
2023-01-12T05:29:32.006Z,11.10
2023-01-12T05:31:58.524Z,12.55
2023-01-12T05:34:25.063Z,11.13
2023-01-12T05:36:51.527Z,15.73
2023-01-12T05:39:18.002Z,12.75
2023-01-12T05:42:03.224Z,13.90
2023-01-12T05:44:29.659Z,15.48
2023-01-12T05:46:56.082Z,12.25
2023-01-12T05:49:22.578Z,15.73
2023-01-12T05:51:48.964Z,12.50
2023-01-12T05:54:15.425Z,12.32
2023-01-12T05:56:42.949Z,16.45
2023-01-12T05:59:11.029Z,12.32
2023-01-12T06:01:38.356Z,13.40
2023-01-12T06:04:04.919Z,12.65
2023-01-12T06:06:31.741Z,12.80
2023-01-12T06:09:00.811Z,14.52
2023-01-12T06:11:47.940Z,13.90
2023-01-12T06:14:14.702Z,15.30
2023-01-12T06:16:42.191Z,12.63
2023-01-12T06:19:11.629Z,15.18
2023-01-12T06:21:38.982Z,13.40
2023-01-12T06:24:05.584Z,10.80
2023-01-12T06:26:32.135Z,12.95
2023-01-12T06:28:58.631Z,14.65
2023-01-12T06:31:25.211Z,13.52
2023-01-12T06:33:51.672Z,12.25
2023-01-12T06:36:19.179Z,13.38
2023-01-12T06:38:45.634Z,15.05
2023-01-12T06:41:31.790Z,12.70
2023-01-12T06:43:58.801Z,15.52
2023-01-12T06:46:26.245Z,11.20
2023-01-12T06:48:55.328Z,11.65
2023-01-12T06:51:21.791Z,10.45
2023-01-12T06:53:48.201Z,13.15
2023-01-12T06:56:14.711Z,11.52
2023-01-12T06:58:44.831Z,10.48
2023-01-12T07:01:12.598Z,13.38
2023-01-12T07:03:39.461Z,11.80
2023-01-12T07:06:05.954Z,12.70
2023-01-12T07:08:32.716Z,12.60
2023-01-12T07:11:07.770Z,10.40
2023-01-12T07:13:34.364Z,9.77
2023-01-12T07:16:01.301Z,8.23
2023-01-12T07:18:28.605Z,12.75
2023-01-12T07:20:55.169Z,9.52
2023-01-12T07:23:21.773Z,11.60
2023-01-12T07:25:48.307Z,14.23
2023-01-12T07:51:56.106Z,12.90
2023-01-12T07:54:23.323Z,13.35
2023-01-12T07:56:49.786Z,13.98
2023-01-12T07:59:16.326Z,13.23
2023-01-12T08:01:42.789Z,9.20
2023-01-12T08:04:09.290Z,11.70
2023-01-12T08:06:36.172Z,11.05
2023-01-12T08:09:03.358Z,13.13
2023-01-12T08:11:29.781Z,11.77
2023-01-12T08:13:57.569Z,9.88
2023-01-12T08:16:28.725Z,15.80
2023-01-12T08:19:05.035Z,9.80
2023-01-12T08:21:41.730Z,10.30
2023-01-12T08:24:09.336Z,8.93
2023-01-12T08:26:38.536Z,7.80
2023-01-12T08:29:11.533Z,9.18
2023-01-12T08:31:39.778Z,9.73
2023-01-12T08:34:06.811Z,10.38
2023-01-12T08:36:33.702Z,9.90
2023-01-12T08:39:01.322Z,12.25
2023-01-12T08:41:33.685Z,12.80
2023-01-12T08:44:09.704Z,9.75
2023-01-12T08:46:39.176Z,9.93
2023-01-12T08:49:09.952Z,8.00
2023-01-12T08:51:36.402Z,11.68
2023-01-12T08:54:03.210Z,6.90
2023-01-12T08:56:29.625Z,14.52
2023-01-12T08:58:56.079Z,9.82
2023-01-12T09:01:22.714Z,9.07
2023-01-12T09:03:49.413Z,10.75
2023-01-12T09:06:18.732Z,11.68
2023-01-12T09:11:13.277Z,8.90
2023-01-12T09:13:40.070Z,9.73
2023-01-12T09:16:13.388Z,12.27
2023-01-12T09:18:41.176Z,10.23
2023-01-12T09:21:09.639Z,7.63
2023-01-12T09:23:36.675Z,8.23
2023-01-12T09:26:23.846Z,7.05
2023-01-12T09:28:51.510Z,7.05
2023-01-12T09:31:22.936Z,7.10
2023-01-12T09:33:49.597Z,6.32
2023-01-12T09:36:18.660Z,6.47
2023-01-12T09:38:46.064Z,9.88
2023-01-12T09:41:39.900Z,6.68
2023-01-12T09:44:35.562Z,5.18
2023-01-12T09:47:04.376Z,7.63
2023-01-12T09:49:34.727Z,8.70
2023-01-12T09:52:17.785Z,9.07
2023-01-12T09:54:48.196Z,6.47
2023-01-12T09:57:43.935Z,5.50
2023-01-12T10:00:15.653Z,5.07
2023-01-12T10:03:03.439Z,9.35
2023-01-12T10:05:47.118Z,6.95
2023-01-12T10:08:17.613Z,5.40
2023-01-12T10:10:55.951Z,6.47
2023-01-12T10:13:22.556Z,10.07
2023-01-12T10:15:53.638Z,10.50
2023-01-12T10:18:40.720Z,8.57
2023-01-12T10:21:11.270Z,11.70
2023-01-12T10:23:37.913Z,8.75
2023-01-12T10:26:04.431Z,6.85
2023-01-12T10:28:33.210Z,10.13
2023-01-12T10:31:00.756Z,8.32
2023-01-12T10:33:32.098Z,10.93
2023-01-12T10:36:08.988Z,7.30
2023-01-12T10:38:38.547Z,11.77
2023-01-12T10:41:16.815Z,7.55
2023-01-12T10:43:45.657Z,7.85
2023-01-12T10:46:23.431Z,7.75
2023-01-12T10:48:51.830Z,5.63
2023-01-12T10:51:21.772Z,8.65
2023-01-12T10:53:57.499Z,8.23
2023-01-12T10:56:26.872Z,6.22
2023-01-12T10:59:14.869Z,10.27
2023-01-12T11:02:09.245Z,7.85
2023-01-12T11:04:41.736Z,6.40
2023-01-12T11:07:22.746Z,7.88
2023-01-12T11:09:49.266Z,7.70
2023-01-12T11:12:29.686Z,5.00
2023-01-12T11:15:14.426Z,6.00
2023-01-12T11:18:03.526Z,7.30
2023-01-12T11:20:40.548Z,4.82
2023-01-12T11:23:15.025Z,5.20
2023-01-12T11:25:46.483Z,6.35
2023-01-12T11:28:24.770Z,6.88
2023-01-12T11:31:01.743Z,3.65
2023-01-12T11:33:34.569Z,6.45
2023-01-12T11:36:27.576Z,5.90
2023-01-12T11:38:59.029Z,5.80
2023-01-12T11:41:34.102Z,6.53
2023-01-12T11:44:09.056Z,3.95
2023-01-12T11:46:49.168Z,3.20
2023-01-12T11:50:13.046Z,3.50
2023-01-12T11:52:39.545Z,4.43
2023-01-12T11:55:06.422Z,3.30
2023-01-12T11:57:38.162Z,4.07
2023-01-12T12:00:31.889Z,4.15
2023-01-12T12:03:26.046Z,2.10
2023-01-12T12:06:08.863Z,2.88
2023-01-12T12:09:00.143Z,4.95
2023-01-12T12:11:48.508Z,2.65
2023-01-12T12:14:41.673Z,1.95
2023-01-12T12:17:49.457Z,4.97
2023-01-12T12:20:39.482Z,2.55
2023-01-12T12:23:25.046Z,3.00
2023-01-12T12:26:08.694Z,2.90
2023-01-12T12:29:06.193Z,2.97
2023-01-12T12:31:53.674Z,3.20
2023-01-12T12:34:45.458Z,1.80
2023-01-12T12:37:30.066Z,2.05
2023-01-12T12:40:54.862Z,2.92
2023-01-12T12:43:48.251Z,1.65
2023-01-12T12:46:14.629Z,3.22
2023-01-12T12:48:56.319Z,1.58
2023-01-12T12:51:24.705Z,4.13
2023-01-12T12:53:54.128Z,5.47
2023-01-12T12:56:23.687Z,3.00
2023-01-12T12:58:51.793Z,2.80
2023-01-12T13:01:21.299Z,2.50
2023-01-12T13:04:00.983Z,3.78
2023-01-12T13:06:27.255Z,2.45
2023-01-12T13:08:58.336Z,1.83
2023-01-12T13:11:59.649Z,2.50
2023-01-12T13:14:31.910Z,3.85
2023-01-12T13:17:19.973Z,1.20
2023-01-12T13:20:08.206Z,3.85
2023-01-12T13:22:46.863Z,3.17
2023-01-12T13:25:16.411Z,2.23
2023-01-12T13:27:51.055Z,0.82
2023-01-12T13:30:35.211Z,1.60
2023-01-12T13:33:15.833Z,2.75
2023-01-12T13:35:46.131Z,1.85
2023-01-12T13:38:15.419Z,1.33
2023-01-12T13:40:42.031Z,2.78
2023-01-12T13:43:27.001Z,1.67
2023-01-12T13:46:00.252Z,2.85
2023-01-12T13:48:27.944Z,3.08
2023-01-12T13:50:59.908Z,3.10
2023-01-12T13:53:29.006Z,2.25
2023-01-12T13:56:00.861Z,1.73
2023-01-12T13:58:29.368Z,2.95
2023-01-12T14:00:57.945Z,2.43
2023-01-12T14:03:53.144Z,2.40
2023-01-12T14:06:45.027Z,4.18
2023-01-12T14:09:26.590Z,6.50
2023-01-12T14:12:05.176Z,1.75
2023-01-12T14:14:56.279Z,3.22
2023-01-12T14:17:49.093Z,1.80
2023-01-12T14:20:15.762Z,2.20
2023-01-12T14:22:42.609Z,2.28
2023-01-12T14:25:16.213Z,2.30
2023-01-12T14:27:52.284Z,2.95
2023-01-12T14:30:19.674Z,2.55
2023-01-12T14:32:47.655Z,1.45
2023-01-12T14:35:16.459Z,1.73
2023-01-12T14:37:48.958Z,1.50
2023-01-12T14:40:27.162Z,2.03
2023-01-12T14:43:12.712Z,1.58
2023-01-12T14:46:10.913Z,1.90
2023-01-12T14:48:42.306Z,3.33
2023-01-12T14:51:36.067Z,3.10
2023-01-12T14:54:08.471Z,1.50
2023-01-12T14:56:41.913Z,2.08
2023-01-12T14:59:23.620Z,3.70
2023-01-12T15:01:53.580Z,3.13
2023-01-12T15:04:24.169Z,2.33
2023-01-12T15:07:08.690Z,2.10
2023-01-12T15:09:50.789Z,1.38
2023-01-12T15:12:43.206Z,1.75
2023-01-12T15:15:23.097Z,2.78
2023-01-12T15:18:09.729Z,2.70
2023-01-12T15:20:56.470Z,1.60
2023-01-12T15:23:46.523Z,1.90
2023-01-12T15:26:12.984Z,3.10
2023-01-12T15:28:40.840Z,1.95
2023-01-12T15:31:42.734Z,1.42
2023-01-12T15:34:10.682Z,1.00
2023-01-12T15:36:37.082Z,2.20
2023-01-12T15:39:03.555Z,1.50
2023-01-12T15:41:49.676Z,1.98
2023-01-12T15:44:20.502Z,1.98
2023-01-12T15:46:47.222Z,1.35
2023-01-12T15:49:14.608Z,2.55
2023-01-12T15:51:46.918Z,2.15
2023-01-12T15:54:13.865Z,1.70
2023-01-12T15:56:40.453Z,2.35
2023-01-12T15:59:06.879Z,1.17
2023-01-12T16:01:38.402Z,3.83
2023-01-12T16:04:40.231Z,2.47
2023-01-12T16:06:52.434Z,2.25
